Yankeetown, Indiana
Current Conditions -  °F | °C
As of 8:54 PM on Friday 19 Dec 2014 (Local Time) from KEVV Reporting Station
Scattered Clouds Scattered Clouds  
Wind Chill: 29°   Ceiling: Unl
Heat Index: 33°   Visibility: 10mi
Dew Point: 25°   Wind: 5mph
Humidity: 72%   Direction: 60°ENE
Pressure: 30.27"   Gusts: NA
Location:  37.9629°N, 87.3632°W
Report Text: KEVV 200254Z 06004KT 10SM SCT120 01/M04 A3027 RMK AO2 SLP255 T00061039 58012
Loading
Personal Weather Stations






























Interactive Weather Map New forecast layout! Learn more

10-Day Weather Forecast

Advertisements
Track Severe Weather on mobile